KAPA/APA METAR and TAF weather

Enter ICAO airport designator
Station Type Date Time Source
KAPA METAR 2019/12/05 22:53 UTC NOAA

KAPA 052253Z 02011KT 1/2SM -DZ BR OVC002 01/00 A3010 RMK AO2 SFC VIS 1 1/2 RAE49DZB49SNE49 SLP210 P0000 T00060000


Station Type Date Time Source
KAPA Decoded METAR 2019/12/05 22:53 UTC NOAA

DENVER CENTENNIAL AIRPORT, CO, United States (KAPA) 39-34N 104-51W 1775M
Dec 05, 2019 - 05:53 PM EST / 2019.12.05 2253 UTC
Wind: from the NNE (020 degrees) at 13 MPH (11 KT):0
Visibility: 1/2 mile(s):0
Sky conditions: overcast
Weather: light drizzle; mist
Precipitation last hour: A trace
Temperature: 33.1 F (0.6 C)
Windchill: 23 F (-5 C):1
Dew Point: 32.0 F (0.0 C)
Relative Humidity: 95%
Pressure (altimeter): 30.1 in. Hg (1019 hPa)
ob: KAPA 052253Z 02011KT 1/2SM -DZ BR OVC002 01/00 A3010 RMK AO2 SFC VIS 1 1/2 RAE49DZB49SNE49 SLP210 P0000 T00060000
cycle: 23

Station Type Date Time Source
KAPA TAF 2019/12/05 23:51 UTC NOAA

TAF
AMD KAPA 052249Z 0523/0618 02011KT P6SM VCSH SCT003 OVC005
TEMPO 0523/0601 1SM -RASN BR OVC003
FM060100 33007KT 4SM BR VCSH SCT005 OVC009
FM060500 22006KT P6SM SCT012 BKN040
FM061000 20010KT P6SM BKN200
FM061500 24008KT P6SM SCT120 SCT200

Example: see airport list